Time;durP1;ratioP1;P1;durP2;ratioP2;P2;SDS_P1;SDS_P2;PMS_P1;PMS_P2;Temp;Humidity;BMP_temperature;BMP_pressure;BME280_temperature;BME280_humidity;BME280_pressure;Samples;Min_cycle;Max_cycle;Signal;HPM_P1;HPM_P2
2022/10/30 00:00:40;;;;;;;55.27;31.77;;;6.90;99.90;;;;;;4148661;28;20033;-64
2022/10/30 00:02:41;;;;;;;51.43;30.50;;;6.90;99.90;;;;;;4162015;28;20108;-66
2022/10/30 00:04:43;;;;;;;52.90;30.90;;;7.10;99.90;;;;;;4159962;28;20453;-66
2022/10/30 00:06:44;;;;;;;56.50;30.77;;;7.10;99.90;;;;;;4161605;28;20041;-66
2022/10/30 00:08:45;;;;;;;56.27;31.07;;;7.20;99.90;;;;;;4161921;28;20034;-65
2022/10/30 00:10:49;;;;;;;56.47;31.47;;;7.20;99.90;;;;;;4161171;28;20037;-63
2022/10/30 00:12:50;;;;;;;44.93;28.80;;;7.20;99.90;;;;;;4163246;28;20429;-67
2022/10/30 00:14:51;;;;;;;49.17;28.77;;;7.20;99.90;;;;;;4160166;28;20394;-65
2022/10/30 00:16:53;;;;;;;52.90;27.80;;;7.10;99.90;;;;;;4162071;28;20046;-64
2022/10/30 00:18:54;;;;;;;42.07;26.20;;;7.00;99.90;;;;;;4150275;28;20425;-64
2022/10/30 00:20:55;;;;;;;43.77;25.77;;;6.90;99.90;;;;;;4149436;28;20096;-64
2022/10/30 00:22:56;;;;;;;41.67;26.87;;;6.90;99.90;;;;;;4161687;28;20068;-64
2022/10/30 00:24:57;;;;;;;59.40;30.97;;;6.80;99.90;;;;;;4162736;28;20053;-64
2022/10/30 00:26:58;;;;;;;51.70;29.33;;;6.70;99.90;;;;;;4160651;28;20111;-66
2022/10/30 00:28:59;;;;;;;66.37;30.80;;;6.70;99.90;;;;;;4162728;28;20473;-65
2022/10/30 00:31:02;;;;;;;64.23;29.97;;;6.70;99.90;;;;;;4158664;28;20025;-65
2022/10/30 00:33:04;;;;;;;72.03;30.17;;;6.70;99.90;;;;;;4146336;28;20029;-65
2022/10/30 00:35:05;;;;;;;81.50;31.03;;;6.70;99.90;;;;;;4145600;28;20441;-63
2022/10/30 00:37:07;;;;;;;102.57;32.50;;;6.70;99.90;;;;;;4148468;28;20092;-67
2022/10/30 00:39:08;;;;;;;54.90;31.57;;;6.70;99.90;;;;;;4144989;28;20429;-64
2022/10/30 00:41:16;;;;;;;73.37;31.97;;;6.60;99.90;;;;;;4145588;28;20832;-64
2022/10/30 00:43:37;;;;;;;56.10;28.67;;;6.70;99.90;;;;;;4144939;28;20041;-65
2022/10/30 00:45:38;;;;;;;;;;;6.70;99.90;;;;;;4159125;28;20088;-65
2022/10/30 00:47:45;;;;;;;;;;;6.70;99.90;;;;;;4146077;28;20332;-64
2022/10/30 00:50:01;;;;;;;61.20;28.70;;;6.80;99.90;;;;;;4145537;28;20357;-65
2022/10/30 00:52:05;;;;;;;73.90;28.63;;;6.80;99.90;;;;;;4145683;28;20057;-68
2022/10/30 00:54:09;;;;;;;78.80;33.60;;;6.70;99.90;;;;;;4144852;28;20084;-63
2022/10/30 00:56:11;;;;;;;64.50;31.00;;;6.70;99.90;;;;;;4160532;28;20076;-65
2022/10/30 00:58:16;;;;;;;89.03;33.43;;;6.60;99.90;;;;;;4161356;28;20355;-66
2022/10/30 01:00:20;;;;;;;59.30;31.23;;;6.70;99.90;;;;;;4162590;28;20054;-64
2022/10/30 01:02:21;;;;;;;76.07;33.47;;;6.60;99.90;;;;;;4159902;28;20046;-64
2022/10/30 01:04:24;;;;;;;76.27;34.00;;;6.70;99.90;;;;;;4159886;28;20095;-63
2022/10/30 01:06:27;;;;;;;62.60;31.90;;;6.70;99.90;;;;;;4160186;28;20034;-68
2022/10/30 01:08:28;;;;;;;67.00;34.03;;;6.70;99.90;;;;;;4160408;28;20025;-64
2022/10/30 01:10:29;;;;;;;58.33;33.63;;;6.80;99.90;;;;;;4160411;28;20037;-64
2022/10/30 01:12:31;;;;;;;64.27;33.00;;;6.80;99.90;;;;;;4161135;28;20049;-67
2022/10/30 01:14:35;;;;;;;64.17;34.13;;;6.90;99.90;;;;;;4160714;28;20067;-63
2022/10/30 01:16:36;;;;;;;64.63;34.83;;;6.90;99.90;;;;;;4152659;28;20025;-67
2022/10/30 01:18:52;;;;;;;68.73;34.80;;;6.90;99.90;;;;;;4160282;28;20110;-68
2022/10/30 01:21:06;;;;;;;70.17;35.33;;;6.80;99.90;;;;;;4150408;28;20037;-64
2022/10/30 01:23:34;;;;;;;69.63;34.67;;;6.80;99.90;;;;;;4126478;28;20183;-64
2022/10/30 01:25:48;;;;;;;62.53;34.20;;;6.90;99.90;;;;;;4123706;28;20100;-63
2022/10/30 01:28:04;;;;;;;66.53;34.67;;;6.90;99.90;;;;;;4144679;28;20030;-65
2022/10/30 01:30:25;;;;;;;58.87;34.03;;;7.00;99.90;;;;;;4145911;28;20474;-65
2022/10/30 01:32:53;;;;;;;61.80;34.00;;;7.00;99.90;;;;;;4126363;28;20087;-67
2022/10/30 01:35:02;;;;;;;62.93;34.80;;;7.10;99.90;;;;;;4144659;28;20552;-68
2022/10/30 01:37:15;;;;;;;63.10;33.77;;;7.20;99.90;;;;;;4129226;28;20085;-68
2022/10/30 01:39:22;;;;;;;63.23;33.30;;;7.20;99.90;;;;;;4143069;28;20038;-68
2022/10/30 01:41:23;;;;;;;61.27;32.60;;;7.20;99.90;;;;;;4143991;28;20049;-68
2022/10/30 01:43:24;;;;;;;59.03;32.33;;;7.20;99.90;;;;;;4145596;28;20483;-66
2022/10/30 01:45:49;;;;;;;60.87;34.13;;;7.20;99.90;;;;;;4151721;28;20379;-65
2022/10/30 01:48:16;;;;;;;64.80;34.23;;;7.30;99.90;;;;;;4144515;28;20196;-66
2022/10/30 01:50:34;;;;;;;62.67;33.17;;;7.30;99.90;;;;;;4103829;28;20482;-68
2022/10/30 01:52:53;;;;;;;60.10;33.63;;;7.30;99.90;;;;;;4144902;28;20026;-64
2022/10/30 01:55:28;;;;;;;58.53;31.40;;;7.40;99.90;;;;;;4144505;28;20038;-69
2022/10/30 01:57:41;;;;;;;50.80;29.57;;;7.40;99.90;;;;;;4140308;28;20037;-70
2022/10/30 01:59:52;;;;;;;50.30;28.60;;;7.40;99.90;;;;;;4145683;28;20042;-67
2022/10/30 02:01:54;;;;;;;47.80;28.73;;;7.30;99.90;;;;;;4144448;28;20021;-67
2022/10/30 02:03:55;;;;;;;55.00;30.10;;;7.30;99.90;;;;;;4144496;28;20045;-66
2022/10/30 02:05:56;;;;;;;49.03;27.83;;;7.30;99.90;;;;;;4159079;28;20050;-69
2022/10/30 02:07:57;;;;;;;49.07;28.30;;;7.30;99.90;;;;;;4161321;28;20536;-68
2022/10/30 02:09:58;;;;;;;43.27;27.00;;;7.30;99.90;;;;;;4160884;28;20551;-68
2022/10/30 02:12:01;;;;;;;47.93;28.83;;;7.30;99.90;;;;;;4160237;28;20034;-68
2022/10/30 02:14:05;;;;;;;46.80;28.27;;;7.30;99.90;;;;;;4160929;28;20064;-66
2022/10/30 02:16:08;;;;;;;52.03;30.90;;;7.30;99.90;;;;;;4160383;28;20059;-67
2022/10/30 02:18:09;;;;;;;63.57;36.47;;;7.30;99.90;;;;;;4153109;28;20049;-65
2022/10/30 02:20:18;;;;;;;60.03;34.33;;;7.20;99.90;;;;;;4160563;28;20469;-65
2022/10/30 02:22:19;;;;;;;55.20;33.23;;;7.10;99.90;;;;;;4160891;28;20425;-68
2022/10/30 02:24:20;;;;;;;62.17;33.30;;;7.20;99.90;;;;;;4159634;28;20436;-69
2022/10/30 02:26:21;;;;;;;59.23;32.53;;;7.10;99.90;;;;;;4143327;28;20155;-69
2022/10/30 02:28:22;;;;;;;50.30;30.37;;;7.20;99.90;;;;;;4159653;28;20042;-68
2022/10/30 02:30:23;;;;;;;52.20;30.93;;;7.30;99.90;;;;;;4146782;28;20872;-68
2022/10/30 02:32:24;;;;;;;52.53;30.67;;;7.30;99.90;;;;;;4151736;28;20579;-69
2022/10/30 02:34:26;;;;;;;52.83;29.07;;;7.40;99.90;;;;;;4161542;28;20037;-68
2022/10/30 02:36:27;;;;;;;52.77;28.07;;;7.50;99.90;;;;;;4160146;28;20469;-67
2022/10/30 02:38:28;;;;;;;49.57;27.70;;;7.50;99.90;;;;;;4154802;28;20026;-68
2022/10/30 02:40:29;;;;;;;47.10;27.17;;;7.60;99.90;;;;;;4160115;28;20452;-65
2022/10/30 02:42:31;;;;;;;52.70;27.40;;;7.60;99.90;;;;;;4160863;28;20107;-65
2022/10/30 02:44:32;;;;;;;49.23;27.70;;;7.70;99.90;;;;;;4160790;28;20440;-64
2022/10/30 02:46:33;;;;;;;45.73;26.07;;;7.80;99.90;;;;;;4159688;28;20091;-65
2022/10/30 02:48:34;;;;;;;50.80;26.93;;;7.80;99.90;;;;;;4160197;28;20068;-64
2022/10/30 02:50:36;;;;;;;47.13;26.57;;;7.80;99.90;;;;;;4162223;28;20098;-64
2022/10/30 02:52:37;;;;;;;49.57;26.30;;;7.90;99.90;;;;;;4153602;28;20085;-65
2022/10/30 02:54:38;;;;;;;45.07;27.70;;;7.90;99.90;;;;;;4146099;28;20087;-66
2022/10/30 02:56:40;;;;;;;45.40;25.53;;;7.90;99.90;;;;;;4147908;28;20073;-64
2022/10/30 02:58:41;;;;;;;46.97;25.93;;;8.00;99.90;;;;;;4146782;28;20033;-65
2022/10/30 03:00:42;;;;;;;47.73;26.30;;;8.00;99.90;;;;;;4147579;28;20084;-64
2022/10/30 03:02:43;;;;;;;48.37;27.37;;;8.00;99.90;;;;;;4146452;28;20033;-65
2022/10/30 03:04:44;;;;;;;43.60;26.43;;;7.90;99.90;;;;;;4149200;28;20091;-67
2022/10/30 03:06:45;;;;;;;44.90;26.43;;;7.80;99.90;;;;;;4145910;28;20041;-63
2022/10/30 03:08:46;;;;;;;46.80;27.17;;;7.70;99.90;;;;;;4147559;28;20544;-66
2022/10/30 03:10:47;;;;;;;49.77;28.60;;;7.70;99.90;;;;;;4145947;28;20026;-62
2022/10/30 03:12:48;;;;;;;46.67;28.20;;;7.70;99.90;;;;;;4146484;28;20721;-63
2022/10/30 03:14:51;;;;;;;43.10;26.23;;;7.60;99.90;;;;;;4156457;28;20045;-64
2022/10/30 03:16:52;;;;;;;43.70;24.43;;;7.50;99.90;;;;;;4147014;28;20088;-65
2022/10/30 03:18:53;;;;;;;42.10;25.13;;;7.40;99.90;;;;;;4146529;28;20123;-67
2022/10/30 03:20:59;;;;;;;41.03;24.30;;;7.50;99.90;;;;;;4145703;28;20080;-65
2022/10/30 03:23:00;;;;;;;45.10;26.40;;;7.50;99.90;;;;;;4147031;28;20369;-64
2022/10/30 03:25:01;;;;;;;46.17;25.03;;;7.50;99.90;;;;;;4146307;28;20022;-63
2022/10/30 03:27:02;;;;;;;44.97;25.37;;;7.50;99.90;;;;;;4158380;28;20050;-64
2022/10/30 03:29:04;;;;;;;42.93;25.17;;;7.60;99.90;;;;;;4162712;28;20087;-66
2022/10/30 03:31:11;;;;;;;41.00;24.10;;;7.60;99.90;;;;;;4163287;28;20037;-64
2022/10/30 03:33:12;;;;;;;48.30;25.90;;;7.60;99.90;;;;;;4161840;28;20037;-62
2022/10/30 03:35:13;;;;;;;48.33;25.83;;;7.70;99.90;;;;;;4163763;28;20060;-64
2022/10/30 03:37:14;;;;;;;43.40;24.87;;;7.80;99.90;;;;;;4162672;28;20079;-64
2022/10/30 03:39:16;;;;;;;41.43;25.17;;;7.80;99.90;;;;;;4159546;28;20433;-64
2022/10/30 03:41:17;;;;;;;43.87;24.40;;;7.80;99.90;;;;;;4153771;28;20091;-64
2022/10/30 03:43:18;;;;;;;45.77;26.43;;;7.80;99.90;;;;;;4146976;28;20038;-67
2022/10/30 03:45:19;;;;;;;46.80;25.37;;;7.80;99.90;;;;;;4146495;28;20033;-65
2022/10/30 03:47:21;;;;;;;43.83;25.70;;;7.80;99.90;;;;;;4145703;28;20042;-68
2022/10/30 03:49:22;;;;;;;54.47;26.97;;;7.80;99.90;;;;;;4146675;28;20042;-64
2022/10/30 03:51:23;;;;;;;61.17;31.50;;;7.80;99.90;;;;;;4159160;28;20079;-65
2022/10/30 03:53:25;;;;;;;57.53;28.50;;;7.70;99.90;;;;;;4157637;28;20026;-63
2022/10/30 03:55:26;;;;;;;61.57;31.63;;;7.70;99.90;;;;;;4145181;28;20034;-65
2022/10/30 03:57:27;;;;;;;66.73;33.10;;;7.60;99.90;;;;;;4146780;28;20092;-63
2022/10/30 03:59:28;;;;;;;65.17;31.77;;;7.60;99.90;;;;;;4145025;28;20069;-64
2022/10/30 04:01:29;;;;;;;66.10;30.47;;;7.60;99.90;;;;;;4154225;28;20429;-66
2022/10/30 04:03:31;;;;;;;80.93;34.77;;;7.50;99.90;;;;;;4147128;28;20068;-63
2022/10/30 04:05:32;;;;;;;62.03;33.00;;;7.60;99.90;;;;;;4155682;28;20021;-64
2022/10/30 04:07:33;;;;;;;85.23;38.53;;;7.50;99.90;;;;;;4154720;28;20042;-64
2022/10/30 04:09:34;;;;;;;80.27;35.90;;;7.60;99.90;;;;;;4159871;28;20365;-66
2022/10/30 04:11:35;;;;;;;91.00;37.73;;;7.60;99.90;;;;;;4134623;28;20080;-63
2022/10/30 04:13:36;;;;;;;72.57;36.13;;;7.60;99.90;;;;;;4161272;28;20026;-68
2022/10/30 04:15:37;;;;;;;77.87;36.67;;;7.70;99.90;;;;;;4157044;28;20033;-66
2022/10/30 04:17:38;;;;;;;78.97;35.90;;;7.70;99.90;;;;;;4153283;28;20724;-67
2022/10/30 04:19:39;;;;;;;76.80;35.90;;;7.80;99.90;;;;;;4162338;28;20072;-65
2022/10/30 04:21:42;;;;;;;74.80;36.33;;;7.90;99.90;;;;;;4160468;28;20095;-67
2022/10/30 04:23:43;;;;;;;84.37;38.47;;;7.90;99.90;;;;;;4155344;28;20404;-64
2022/10/30 04:25:44;;;;;;;96.03;41.57;;;7.90;99.90;;;;;;4160642;28;20433;-66
2022/10/30 04:27:45;;;;;;;91.93;41.13;;;8.00;99.90;;;;;;4152663;28;20469;-67
2022/10/30 04:29:46;;;;;;;97.47;42.47;;;8.00;99.90;;;;;;4144503;28;20042;-67
2022/10/30 04:31:48;;;;;;;96.03;42.97;;;8.00;99.90;;;;;;4146848;28;20478;-66
2022/10/30 04:33:49;;;;;;;91.07;40.20;;;8.00;99.90;;;;;;4145229;28;20033;-64
2022/10/30 04:35:50;;;;;;;92.53;41.17;;;8.10;99.90;;;;;;4145738;28;20115;-67
2022/10/30 04:37:59;;;;;;;80.10;38.97;;;8.10;99.90;;;;;;4145627;28;20080;-66
2022/10/30 04:40:00;;;;;;;77.17;37.67;;;8.10;99.90;;;;;;4162741;28;20543;-68
2022/10/30 04:42:01;;;;;;;74.33;34.03;;;8.20;99.90;;;;;;4157704;28;20076;-67
2022/10/30 04:44:02;;;;;;;92.43;38.80;;;8.20;99.90;;;;;;4146279;28;20049;-69
2022/10/30 04:46:04;;;;;;;78.27;36.17;;;8.20;99.90;;;;;;4144036;28;20050;-67
2022/10/30 04:48:12;;;;;;;81.03;35.87;;;8.20;99.90;;;;;;4145759;28;20022;-68
2022/10/30 04:50:14;;;;;;;81.70;35.87;;;8.20;99.90;;;;;;4145208;28;20030;-67
2022/10/30 04:52:15;;;;;;;70.63;33.23;;;8.20;99.90;;;;;;4145625;28;20430;-69
2022/10/30 04:54:16;;;;;;;99.73;36.80;;;8.20;99.90;;;;;;4146503;28;20076;-67
2022/10/30 04:56:17;;;;;;;72.47;32.97;;;8.20;99.90;;;;;;4147387;28;20430;-69
2022/10/30 04:58:18;;;;;;;77.27;32.67;;;8.20;99.90;;;;;;4145523;28;20029;-64
2022/10/30 05:00:19;;;;;;;72.60;32.43;;;8.30;99.90;;;;;;4148040;28;20099;-64
2022/10/30 05:02:22;;;;;;;74.83;33.00;;;8.30;99.90;;;;;;4160127;28;20050;-63
2022/10/30 05:04:23;;;;;;;75.50;34.17;;;8.30;99.90;;;;;;4141211;28;20101;-64
2022/10/30 05:06:26;;;;;;;74.30;32.60;;;8.40;99.90;;;;;;4157106;28;20033;-64
2022/10/30 05:08:28;;;;;;;69.93;29.90;;;8.40;99.90;;;;;;4159336;28;20493;-67
2022/10/30 05:10:29;;;;;;;61.87;27.47;;;8.50;99.90;;;;;;4162281;28;20034;-64
2022/10/30 05:12:30;;;;;;;45.43;21.30;;;8.50;99.90;;;;;;4159496;28;20107;-64
2022/10/30 05:14:32;;;;;;;39.17;18.93;;;8.50;99.90;;;;;;4162114;28;20029;-65
2022/10/30 05:16:33;;;;;;;37.97;18.77;;;8.50;99.90;;;;;;4159199;28;20021;-64
2022/10/30 05:18:34;;;;;;;43.43;18.50;;;8.60;99.90;;;;;;4161063;28;20095;-64
2022/10/30 05:20:35;;;;;;;39.90;18.97;;;8.60;99.90;;;;;;4161076;28;20375;-65
2022/10/30 05:22:37;;;;;;;42.83;19.27;;;8.60;99.90;;;;;;4161704;28;20478;-64
2022/10/30 05:24:38;;;;;;;38.80;18.20;;;8.60;99.90;;;;;;4161282;28;20095;-65
2022/10/30 05:26:39;;;;;;;42.93;18.33;;;8.70;99.90;;;;;;4161099;28;20099;-64
2022/10/30 05:28:41;;;;;;;39.87;18.00;;;8.70;99.90;;;;;;4151465;28;20627;-64
2022/10/30 05:30:42;;;;;;;39.63;17.77;;;8.70;99.90;;;;;;4158030;28;20029;-63
2022/10/30 05:32:43;;;;;;;41.67;18.07;;;8.70;99.90;;;;;;4145544;28;20029;-64
2022/10/30 05:34:44;;;;;;;38.33;18.70;;;8.70;99.90;;;;;;4144365;28;20045;-65
2022/10/30 05:36:46;;;;;;;44.80;19.33;;;8.80;99.90;;;;;;4151040;28;20075;-65
2022/10/30 05:38:47;;;;;;;36.90;17.87;;;8.80;99.90;;;;;;4144280;28;20088;-64
2022/10/30 05:40:48;;;;;;;39.20;18.03;;;8.80;99.90;;;;;;4146440;28;20041;-64
2022/10/30 05:42:50;;;;;;;34.07;17.33;;;8.80;99.90;;;;;;4147553;28;20047;-64
2022/10/30 05:44:51;;;;;;;42.87;18.53;;;8.90;99.90;;;;;;4137041;28;20490;-63
2022/10/30 05:46:52;;;;;;;36.03;18.40;;;8.90;99.90;;;;;;4150494;28;20054;-64
2022/10/30 05:48:53;;;;;;;39.00;18.03;;;8.90;99.90;;;;;;4145417;28;20072;-64
2022/10/30 05:50:55;;;;;;;36.43;18.77;;;9.00;99.90;;;;;;4144199;28;20022;-63
2022/10/30 05:53:01;;;;;;;38.67;18.67;;;9.00;99.90;;;;;;4145615;28;20058;-65
2022/10/30 05:55:03;;;;;;;44.07;18.77;;;9.00;99.90;;;;;;4144004;28;20572;-64
2022/10/30 05:57:04;;;;;;;39.43;16.77;;;9.10;99.90;;;;;;4144697;28;20095;-64
2022/10/30 05:59:05;;;;;;;33.20;17.70;;;9.10;99.90;;;;;;4144860;28;20088;-70
2022/10/30 06:01:07;;;;;;;33.33;16.60;;;9.10;99.90;;;;;;4146435;28;20068;-66
2022/10/30 06:03:11;;;;;;;33.27;17.80;;;9.20;99.90;;;;;;4144753;28;20493;-65
2022/10/30 06:05:12;;;;;;;34.70;18.17;;;9.20;99.90;;;;;;4152417;28;20034;-64
2022/10/30 06:07:13;;;;;;;38.87;18.57;;;9.20;99.90;;;;;;4150368;28;20104;-68
2022/10/30 06:09:14;;;;;;;35.93;18.27;;;9.30;99.90;;;;;;4144239;28;20120;-68
2022/10/30 06:11:15;;;;;;;32.83;17.00;;;9.30;99.90;;;;;;4145235;28;20030;-64
2022/10/30 06:13:16;;;;;;;38.63;17.17;;;9.30;99.90;;;;;;4144534;28;20545;-65
2022/10/30 06:15:17;;;;;;;34.23;17.53;;;9.30;99.90;;;;;;4147273;28;20033;-65
2022/10/30 06:17:18;;;;;;;36.43;17.87;;;9.30;99.90;;;;;;4143824;28;20029;-67
2022/10/30 06:19:20;;;;;;;30.97;16.83;;;9.20;99.90;;;;;;4146298;28;20025;-65
2022/10/30 06:21:21;;;;;;;33.70;18.27;;;9.30;99.90;;;;;;4143764;28;20030;-65
2022/10/30 06:23:22;;;;;;;35.40;17.03;;;9.20;99.90;;;;;;4145023;28;20080;-64
2022/10/30 06:25:24;;;;;;;35.77;17.20;;;9.30;99.90;;;;;;4148210;28;20046;-64
2022/10/30 06:27:25;;;;;;;29.63;16.57;;;9.30;99.90;;;;;;4163456;28;20444;-65
2022/10/30 06:29:26;;;;;;;34.23;17.33;;;9.40;99.90;;;;;;4160647;28;20033;-66
2022/10/30 06:31:27;;;;;;;28.70;16.47;;;9.40;99.90;;;;;;4163917;28;20037;-64
2022/10/30 06:33:28;;;;;;;36.33;17.10;;;9.50;99.90;;;;;;4164239;28;20347;-64
2022/10/30 06:35:29;;;;;;;32.87;16.57;;;9.50;99.90;;;;;;4162655;28;20104;-67
2022/10/30 06:37:31;;;;;;;35.53;16.63;;;9.60;99.90;;;;;;4163645;28;20033;-66
2022/10/30 06:39:32;;;;;;;27.43;14.20;;;9.60;99.90;;;;;;4163203;28;20056;-65
2022/10/30 06:41:33;;;;;;;27.70;15.40;;;9.70;99.90;;;;;;4162835;28;20038;-65
2022/10/30 06:43:34;;;;;;;32.13;17.37;;;9.80;99.90;;;;;;4163202;28;20104;-65
2022/10/30 06:45:35;;;;;;;29.80;15.03;;;9.90;99.90;;;;;;4164052;28;20026;-64
2022/10/30 06:47:37;;;;;;;32.00;16.90;;;9.90;99.90;;;;;;4160429;28;20548;-64
2022/10/30 06:49:38;;;;;;;30.23;15.90;;;10.00;99.90;;;;;;4133737;28;20038;-65
2022/10/30 06:51:39;;;;;;;31.93;15.53;;;10.10;99.90;;;;;;4148696;28;20803;-64
2022/10/30 06:53:40;;;;;;;28.97;15.33;;;10.10;99.90;;;;;;4160605;28;20434;-64
2022/10/30 06:55:41;;;;;;;27.57;15.33;;;10.20;99.90;;;;;;4159468;28;20025;-68
2022/10/30 06:57:42;;;;;;;32.30;15.97;;;10.20;99.90;;;;;;4152422;28;20448;-63
2022/10/30 06:59:44;;;;;;;32.93;16.57;;;10.30;99.90;;;;;;4148010;28;20096;-63
2022/10/30 07:01:45;;;;;;;26.90;14.70;;;10.30;99.90;;;;;;4146442;28;20092;-64
2022/10/30 07:03:46;;;;;;;33.73;16.63;;;10.30;99.90;;;;;;4150681;28;20049;-64
2022/10/30 07:05:47;;;;;;;27.13;13.97;;;10.30;99.90;;;;;;4146764;28;20544;-65
2022/10/30 07:07:48;;;;;;;30.20;15.03;;;10.40;99.90;;;;;;4147629;28;20069;-68
2022/10/30 07:09:49;;;;;;;25.93;14.57;;;10.40;99.90;;;;;;4146221;28;20029;-64
2022/10/30 07:11:50;;;;;;;26.77;14.57;;;10.40;99.90;;;;;;4130552;28;20506;-64
2022/10/30 07:13:51;;;;;;;29.03;14.70;;;10.40;99.90;;;;;;4149175;28;20029;-65
2022/10/30 07:15:53;;;;;;;29.00;14.67;;;10.50;99.90;;;;;;4166078;28;20122;-68
2022/10/30 07:17:56;;;;;;;24.70;13.20;;;10.60;99.90;;;;;;4146719;28;20037;-66
2022/10/30 07:19:57;;;;;;;28.93;13.60;;;10.70;99.90;;;;;;4150430;28;20030;-64
2022/10/30 07:22:00;;;;;;;28.13;15.07;;;10.70;99.90;;;;;;4147713;28;20049;-63
2022/10/30 07:24:01;;;;;;;26.47;14.67;;;10.70;99.90;;;;;;4162622;28;20535;-64
2022/10/30 07:26:02;;;;;;;28.50;15.17;;;10.80;99.90;;;;;;4162566;28;20037;-64
2022/10/30 07:28:03;;;;;;;23.60;13.83;;;10.90;99.90;;;;;;4162527;28;20099;-64
2022/10/30 07:30:05;;;;;;;22.43;12.87;;;11.00;99.90;;;;;;4160331;28;20053;-64
2022/10/30 07:32:06;;;;;;;26.23;14.63;;;11.10;99.90;;;;;;4163160;28;20033;-68
2022/10/30 07:34:08;;;;;;;28.93;15.17;;;11.10;99.90;;;;;;4163057;28;20034;-64
2022/10/30 07:36:09;;;;;;;22.87;13.97;;;11.20;99.90;;;;;;4161306;28;20033;-65
2022/10/30 07:38:11;;;;;;;26.87;14.37;;;11.10;99.90;;;;;;4145003;28;20038;-63
2022/10/30 07:40:12;;;;;;;24.60;13.67;;;11.20;99.90;;;;;;4161079;28;20049;-65
2022/10/30 07:42:13;;;;;;;25.30;14.47;;;11.20;99.90;;;;;;4163366;28;20029;-65
2022/10/30 07:44:15;;;;;;;21.97;13.93;;;11.30;99.90;;;;;;4161099;28;20481;-65
2022/10/30 07:46:16;;;;;;;24.33;14.50;;;11.40;99.90;;;;;;4162069;28;20045;-64
2022/10/30 07:48:17;;;;;;;23.77;14.90;;;11.40;99.90;;;;;;4147793;28;20116;-64
2022/10/30 07:50:19;;;;;;;23.57;14.10;;;11.50;99.90;;;;;;4157215;28;20524;-65
2022/10/30 07:52:20;;;;;;;26.73;14.47;;;11.60;99.90;;;;;;4156512;28;20146;-67
2022/10/30 07:54:21;;;;;;;23.87;13.47;;;11.60;99.90;;;;;;4152492;28;20042;-64
2022/10/30 07:56:22;;;;;;;27.57;13.77;;;11.60;99.90;;;;;;4145524;28;20026;-65
2022/10/30 07:58:23;;;;;;;25.70;13.43;;;11.60;99.90;;;;;;4147914;28;20034;-63
2022/10/30 08:00:24;;;;;;;24.43;14.27;;;11.60;99.90;;;;;;4162212;28;20029;-64
2022/10/30 08:02:26;;;;;;;25.07;13.53;;;11.60;99.90;;;;;;4162679;28;20095;-65
2022/10/30 08:04:27;;;;;;;23.33;13.47;;;11.70;99.90;;;;;;4159683;28;20042;-69
2022/10/30 08:06:28;;;;;;;23.33;13.10;;;11.80;99.90;;;;;;4145023;28;20038;-63
2022/10/30 08:08:29;;;;;;;21.87;12.83;;;11.80;99.90;;;;;;4145709;28;20532;-64
2022/10/30 08:10:30;;;;;;;21.27;12.60;;;11.70;99.90;;;;;;4144747;28;20457;-68
2022/10/30 08:12:33;;;;;;;22.23;12.87;;;11.80;99.90;;;;;;4144128;28;20026;-65
2022/10/30 08:14:34;;;;;;;23.23;13.27;;;11.80;99.90;;;;;;4145248;28;20048;-65
2022/10/30 08:16:35;;;;;;;24.97;14.03;;;11.90;99.90;;;;;;4146292;28;20088;-64
2022/10/30 08:18:37;;;;;;;21.97;13.07;;;11.90;99.90;;;;;;4145155;28;20030;-64
2022/10/30 08:20:38;;;;;;;24.23;13.63;;;12.00;99.90;;;;;;4146203;28;20030;-64
2022/10/30 08:22:55;;;;;;;25.13;13.77;;;12.10;99.90;;;;;;4144516;28;20566;-66
2022/10/30 08:24:56;;;;;;;27.23;13.00;;;12.20;99.90;;;;;;4145980;28;20457;-64
2022/10/30 08:26:57;;;;;;;24.03;14.53;;;12.40;99.90;;;;;;4145156;28;20038;-68
2022/10/30 08:28:58;;;;;;;23.50;13.13;;;12.40;99.90;;;;;;4146339;28;20107;-70
2022/10/30 08:31:01;;;;;;;25.13;13.80;;;12.40;99.90;;;;;;4145086;28;20533;-71
2022/10/30 08:33:05;;;;;;;24.10;12.90;;;12.40;99.90;;;;;;4145965;28;20045;-64
2022/10/30 08:35:06;;;;;;;23.37;13.60;;;12.40;99.90;;;;;;4149306;28;20477;-63
2022/10/30 08:37:08;;;;;;;24.70;13.97;;;12.50;99.90;;;;;;4161139;28;20041;-65
2022/10/30 08:39:09;;;;;;;22.17;13.23;;;12.60;99.90;;;;;;4160937;28;20434;-66
2022/10/30 08:41:10;;;;;;;20.90;12.33;;;12.70;99.90;;;;;;4144445;28;20050;-63
2022/10/30 08:43:11;;;;;;;22.43;13.43;;;12.70;99.90;;;;;;4145559;28;20038;-62
2022/10/30 08:45:12;;;;;;;20.53;13.03;;;12.80;99.90;;;;;;4144642;28;20042;-66
2022/10/30 08:47:13;;;;;;;22.63;12.60;;;12.80;99.90;;;;;;4144290;28;20067;-64
2022/10/30 08:49:14;;;;;;;23.77;12.80;;;12.90;99.90;;;;;;4144366;28;20097;-64
2022/10/30 08:51:15;;;;;;;22.43;13.17;;;13.00;99.90;;;;;;4145813;28;20430;-64
2022/10/30 08:53:17;;;;;;;24.07;13.10;;;13.10;99.90;;;;;;4160034;28;20449;-64
2022/10/30 08:55:18;;;;;;;20.20;13.07;;;13.30;99.90;;;;;;4161416;28;20045;-62
2022/10/30 08:57:19;;;;;;;22.17;13.77;;;13.40;99.90;;;;;;4160811;28;20083;-67
2022/10/30 08:59:20;;;;;;;24.80;13.90;;;13.60;99.90;;;;;;4161967;28;20052;-68
2022/10/30 09:01:21;;;;;;;22.93;13.70;;;13.50;99.90;;;;;;4161098;28;20140;-65
2022/10/30 09:03:22;;;;;;;28.37;15.13;;;13.60;99.90;;;;;;4162600;28;20033;-63
2022/10/30 09:05:24;;;;;;;25.93;15.23;;;13.50;99.90;;;;;;4160975;28;20477;-66
2022/10/30 09:07:25;;;;;;;31.10;15.40;;;13.30;99.90;;;;;;4159794;28;20438;-69
2022/10/30 09:09:27;;;;;;;34.53;17.50;;;13.10;99.90;;;;;;4161296;28;20075;-65
2022/10/30 09:11:28;;;;;;;37.60;18.67;;;13.00;99.90;;;;;;4158676;28;20755;-69
2022/10/30 09:13:29;;;;;;;49.17;20.83;;;13.10;99.90;;;;;;4161484;28;20033;-68
2022/10/30 09:15:30;;;;;;;43.00;21.77;;;13.20;99.90;;;;;;4160560;28;20088;-71
2022/10/30 09:17:31;;;;;;;39.93;22.23;;;13.20;99.90;;;;;;4143212;28;20467;-67
2022/10/30 09:19:33;;;;;;;47.97;22.40;;;13.30;99.90;;;;;;4160445;28;20059;-67
2022/10/30 09:21:34;;;;;;;38.28;21.52;;;13.50;99.90;;;;;;4161728;28;20130;-66
2022/10/30 09:23:36;;;;;;;30.20;17.80;;;13.60;99.90;;;;;;4142429;28;20041;-68
2022/10/30 09:25:37;;;;;;;32.50;19.38;;;13.80;99.90;;;;;;4160601;28;20486;-68
2022/10/30 09:27:39;;;;;;;39.70;19.87;;;14.00;99.90;;;;;;4160541;28;20037;-68
2022/10/30 09:29:40;;;;;;;42.33;19.63;;;14.00;99.90;;;;;;4146243;28;20038;-66
2022/10/30 09:31:41;;;;;;;38.60;19.35;;;14.00;99.90;;;;;;4144377;28;20042;-65
2022/10/30 09:33:42;;;;;;;37.17;17.92;;;14.10;99.90;;;;;;4145048;28;20085;-66
2022/10/30 09:35:43;;;;;;;29.35;16.45;;;14.30;99.90;;;;;;4143430;28;20478;-67
2022/10/30 09:37:44;;;;;;;27.05;14.90;;;14.40;99.90;;;;;;4144573;28;20152;-68
2022/10/30 09:39:45;;;;;;;26.67;15.43;;;14.40;99.90;;;;;;4143324;28;20038;-68
2022/10/30 09:41:52;;;;;;;22.45;15.30;;;14.30;99.90;;;;;;4143868;28;20433;-65
2022/10/30 09:43:56;;;;;;;31.25;16.08;;;14.20;99.90;;;;;;4143953;28;20096;-67
2022/10/30 09:46:06;;;;;;;34.33;16.88;;;14.20;99.90;;;;;;4143895;28;20046;-67
2022/10/30 09:48:56;;;;;;;31.17;16.75;;;14.20;99.90;;;;;;4144847;28;20461;-66
2022/10/30 09:51:21;;;;;;;33.25;16.80;;;14.40;99.90;;;;;;4085097;28;20035;-68
2022/10/30 09:53:48;;;;;;;34.08;15.77;;;14.70;99.90;;;;;;4143744;28;20512;-69
2022/10/30 09:56:13;;;;;;;26.83;15.25;;;14.70;99.90;;;;;;4144861;28;20034;-62
2022/10/30 09:58:30;;;;;;;30.17;16.67;;;14.70;99.90;;;;;;4144595;28;20026;-63
2022/10/30 10:00:51;;;;;;;23.35;15.23;;;14.70;99.90;;;;;;4157236;28;20544;-69
2022/10/30 10:03:11;;;;;;;;;;;14.80;99.90;;;;;;4162551;28;20068;-64
2022/10/30 10:05:24;;;;;;;34.13;15.57;;;14.80;99.90;;;;;;4165397;28;20331;-71
2022/10/30 10:07:36;;;;;;;31.35;16.98;;;14.70;99.90;;;;;;4165171;28;20072;-68
2022/10/30 10:09:39;;;;;;;33.70;17.35;;;14.70;99.90;;;;;;4165763;28;20049;-67
2022/10/30 10:11:46;;;;;;;32.78;16.33;;;14.80;99.90;;;;;;4165313;28;20091;-63
2022/10/30 10:13:52;;;;;;;31.88;15.43;;;14.90;99.90;;;;;;4166703;28;20132;-66
2022/10/30 10:16:04;;;;;;;31.33;16.25;;;15.10;99.90;;;;;;4164279;28;20793;-63
2022/10/30 10:18:22;;;;;;;30.33;17.50;;;15.30;99.90;;;;;;4166158;28;20037;-63
2022/10/30 10:20:32;;;;;;;38.35;18.10;;;15.30;99.90;;;;;;4164664;28;20563;-67
2022/10/30 10:22:45;;;;;;;29.63;16.70;;;15.40;99.90;;;;;;4159420;28;20783;-65
2022/10/30 10:24:46;;;;;;;33.95;17.60;;;15.60;99.90;;;;;;4148645;28;20417;-63
2022/10/30 10:27:03;;;;;;;37.58;17.42;;;15.70;99.90;;;;;;4131866;28;20113;-63
2022/10/30 10:29:14;;;;;;;32.20;16.40;;;15.80;99.90;;;;;;4148663;28;20084;-63
2022/10/30 10:31:15;;;;;;;;;;;16.00;99.90;;;;;;4151164;28;20034;-67
2022/10/30 10:33:22;;;;;;;43.65;18.50;;;16.20;99.90;;;;;;4165384;28;19905;-66